Risinger Woods, Louisiana
Current Conditions -  °F | °C
As of 3:53 PM on Tuesday 21 Oct 2014 (Local Time) from KDTN Reporting Station
Few Clouds Few Clouds  
Wind Chill: 27°   Ceiling: Unl
Heat Index: 27°   Visibility: 10mi
Dew Point: 15°   Wind: 5mph
Humidity: 47%   Direction: NA
Pressure: 30.02"   Gusts: NA
Location:  32.5955°N, 93.8642°W
Report Text: KDTN 212053Z VRB04KT 10SM FEW047 27/15 A3002 RMK AO2 SLP164 T02720150 56022
Loading
Personal Weather Stations






























Interactive Weather Map
Tropical Storm Tracking
New forecast layout! Learn more

10-Day Weather Forecast

Advertisements
Track Severe Weather on mobile